Etusivu
METAR-TAF:

METAR-TAF

Lentoasemat :

Koror, Babelthuap Island, Palau

Leveyspiiri: 07-22N, Pituuspiiri: 134-32E, korkeus merenpinnasta: 54 m

Tämänhetkinen sää

Tämä raportti tehtiin 24 minuuttia sitten, kello 00.50 UTC
Tuuli 4 kn etelästä/kaakosta
Lämpötila 31°C
Kosteus 71%
Ilmanpaine 1010 hPa
Näkyvyys: 24.1 km
Hajanaisia pilviä 1600 ft:n korkeudessa, Kasvava cumulus-pilvi.
Hajonneita pilviä 12000 ft:n korkeudessa
Hajonneita pilviä 30000 ft:n korkeudessa

METAR: PTRO 250050Z 15004KT 15SM SCT016TCU BKN120 BKN300 31/25 A2982 RMK TCU VC ALQDS

Aika: 10:14 (01:14 UTC)

Sääennuste

Tämä raportti tehtiin 1 tunti ja 54 minuuttia sitten, kello 23.20 UTC
Ennuste voimassa 25. päivästä klo 00 UTC - 25. päivään klo 24 UTC
Tuuli 5 kn eri suunnista
Näkyvyys: 10 km
Hajanaisia pilviä 1600 ft:n korkeudessa
Hajanaisia pilviä 12000 ft:n korkeudessa
sadekuuroja näköpiirissä

TAF: PTRO 242320Z 2500/2524 VRB05KT P6SM VCSH SCT016 SCT120

Säähavainnot ja -ennusteet yli 4000 lentoasemalta (METAR- ja TAF-raportit).

Käytössä olevat sääasemat on merkitty karttaan keltaisilla ja punaisilla pisteillä.

Aseta hiiri pisteen päälle nähdäksesi sääaseman nimen.

Klikkaa sitten nähdäksesi säähavainnot ja -ennusteet.

Kartan vaihtaminen: klikkaa mustalla rastilla varustettuja vihreitä pisteitä, niin voit zoomata sisään; viivalla varustettua vihreää pistettä, niin voit zoomata ulos tai vihreitä nuolia, niin pääset viereisille kartoille.


METAR-TAF: